Skip Navigation Links
NOAA logo - Click to go to the NOAA homepage
NOAA's National Weather Service
Alaska Aviation Weather Unit
  NWS logo - Click to go to the NWS homepage
Left Navbar Graphic     21 AKDT = 05 GMT

   
NOAA is celebrating 200 years of science, service, and stewardship. Visit the NOAA 200th celebration Web site to learn more.
USA.gov is the U.S. Government's official Web portal to all Federal, state and local government Web resources and services.
Facebook
NWS on Facebook

AAWU Home :: Display TAF Add Bookmark
METAR PANT 262353Z AUTO 13015G22KT 10SM -RA OVC018 09/06 A2954 RMK AO2
     RAB05 SLP005 P0001 60005 T00890056 10117 20089 50006 TSNO=

PANT 270018Z AUTO 12014G20KT 6SM -RA OVC014 09/06 A2955=

METAR PANT 270053Z AUTO 13008KT 8SM -RA OVC009 08/06 A2955 RMK AO2
     SLP008 P0004 T00830061 TSNO=

METAR PANT 270153Z AUTO 18006KT 10SM -RA FEW007 OVC028 09/07 A2958 RMK
     AO2 SLP018 P0001 T00890067 TSNO=

PANT 270232Z AUTO 20008KT 10SM -RA SCT025 BKN030 OVC035 09/07
A2961=

PANT 270242Z AUTO 24007KT 10SM -RA BKN021 OVC028 09/07 A2962=

METAR PANT 270253Z AUTO 23008G17KT 10SM -RA SCT021 BKN028 OVC036 08/06
     A2963 RMK AO2 SLP033 P0001 60006 T00830056 53024 TSNO=

PANT 270301Z AUTO 23007G16KT 200V270 10SM -RA FEW019 BKN031 OVC046
08/06 A2963=

METAR PANT 270353Z AUTO 23007G16KT 10SM FEW026 OVC050 08/05 A2967 RMK
     AO2 RAE17 SLP048 P0000 T00830050 TSNO=

METAR PANT 270453Z AUTO VRB06KT 10SM -RA OVC055 08/04 A2971 RMK AO2
     RAB15 SLP063 P0000 T00780039 TSNO=


NOAA's National Weather Service
Alaska Aviation Weather Unit
6930 Sand Lake Road
Anchorage, AK 99502-1845
Disclaimer
Credits
Glossary
Privacy Policy
About Us
Career Opportunities
Contact AAWU Internet Services Site last modified: April, 17th 2012